sensor_id;sensor_type;location;lat;lon;timestamp;P1;durP1;ratioP1;P2;durP2;ratioP2
11763;SDS011;5939;56.522;14.950;2022-12-07T00:02:16;4.40;;;3.57;;
11763;SDS011;5939;56.522;14.950;2022-12-07T00:04:41;4.57;;;3.73;;
11763;SDS011;5939;56.522;14.950;2022-12-07T00:07:07;4.57;;;3.60;;
11763;SDS011;5939;56.522;14.950;2022-12-07T00:09:32;4.57;;;3.57;;
11763;SDS011;5939;56.522;14.950;2022-12-07T00:11:58;4.93;;;3.80;;
11763;SDS011;5939;56.522;14.950;2022-12-07T00:14:24;4.27;;;3.47;;
11763;SDS011;5939;56.522;14.950;2022-12-07T00:16:50;4.47;;;3.77;;
11763;SDS011;5939;56.522;14.950;2022-12-07T00:19:17;3.97;;;3.10;;
11763;SDS011;5939;56.522;14.950;2022-12-07T00:21:42;4.30;;;3.63;;
11763;SDS011;5939;56.522;14.950;2022-12-07T00:24:09;4.10;;;3.50;;
11763;SDS011;5939;56.522;14.950;2022-12-07T00:26:36;3.10;;;2.80;;
11763;SDS011;5939;56.522;14.950;2022-12-07T00:29:04;4.77;;;3.50;;
11763;SDS011;5939;56.522;14.950;2022-12-07T00:31:33;3.80;;;3.33;;
11763;SDS011;5939;56.522;14.950;2022-12-07T00:34:03;4.00;;;3.30;;
11763;SDS011;5939;56.522;14.950;2022-12-07T00:36:36;3.97;;;2.97;;
11763;SDS011;5939;56.522;14.950;2022-12-07T00:39:02;5.03;;;3.57;;
11763;SDS011;5939;56.522;14.950;2022-12-07T00:41:28;3.77;;;3.20;;
11763;SDS011;5939;56.522;14.950;2022-12-07T00:43:54;3.80;;;3.50;;
11763;SDS011;5939;56.522;14.950;2022-12-07T00:46:21;4.97;;;3.40;;
11763;SDS011;5939;56.522;14.950;2022-12-07T00:48:47;4.10;;;3.47;;
11763;SDS011;5939;56.522;14.950;2022-12-07T00:51:14;3.70;;;3.30;;
11763;SDS011;5939;56.522;14.950;2022-12-07T00:53:41;4.07;;;3.37;;
11763;SDS011;5939;56.522;14.950;2022-12-07T00:56:08;4.37;;;3.37;;
11763;SDS011;5939;56.522;14.950;2022-12-07T00:58:38;3.97;;;3.47;;
11763;SDS011;5939;56.522;14.950;2022-12-07T01:01:05;4.47;;;3.60;;
11763;SDS011;5939;56.522;14.950;2022-12-07T01:03:32;4.07;;;3.10;;
11763;SDS011;5939;56.522;14.950;2022-12-07T01:05:58;3.63;;;3.00;;
11763;SDS011;5939;56.522;14.950;2022-12-07T01:08:25;3.60;;;3.30;;
11763;SDS011;5939;56.522;14.950;2022-12-07T01:11:02;3.40;;;3.10;;
11763;SDS011;5939;56.522;14.950;2022-12-07T01:13:29;3.80;;;3.00;;
11763;SDS011;5939;56.522;14.950;2022-12-07T01:15:59;3.90;;;3.10;;
11763;SDS011;5939;56.522;14.950;2022-12-07T01:18:28;3.10;;;2.80;;
11763;SDS011;5939;56.522;14.950;2022-12-07T01:21:00;3.10;;;2.77;;
11763;SDS011;5939;56.522;14.950;2022-12-07T01:23:32;3.67;;;2.97;;
11763;SDS011;5939;56.522;14.950;2022-12-07T01:25:59;3.70;;;2.97;;
11763;SDS011;5939;56.522;14.950;2022-12-07T01:28:26;4.00;;;2.80;;
11763;SDS011;5939;56.522;14.950;2022-12-07T01:31:03;3.57;;;2.97;;
11763;SDS011;5939;56.522;14.950;2022-12-07T01:33:31;3.27;;;2.93;;
11763;SDS011;5939;56.522;14.950;2022-12-07T01:38:57;3.27;;;2.97;;
11763;SDS011;5939;56.522;14.950;2022-12-07T01:41:30;2.83;;;2.57;;
11763;SDS011;5939;56.522;14.950;2022-12-07T01:46:50;4.60;;;3.20;;
11763;SDS011;5939;56.522;14.950;2022-12-07T01:52:25;3.17;;;2.87;;
11763;SDS011;5939;56.522;14.950;2022-12-07T01:55:05;4.40;;;2.87;;
11763;SDS011;5939;56.522;14.950;2022-12-07T01:57:34;3.57;;;2.70;;
11763;SDS011;5939;56.522;14.950;2022-12-07T02:00:03;4.27;;;3.20;;
11763;SDS011;5939;56.522;14.950;2022-12-07T02:02:31;3.13;;;2.57;;
11763;SDS011;5939;56.522;14.950;2022-12-07T02:05:00;3.10;;;2.80;;
11763;SDS011;5939;56.522;14.950;2022-12-07T02:07:27;3.60;;;3.17;;
11763;SDS011;5939;56.522;14.950;2022-12-07T02:09:53;3.20;;;2.90;;
11763;SDS011;5939;56.522;14.950;2022-12-07T02:12:19;3.17;;;2.87;;
11763;SDS011;5939;56.522;14.950;2022-12-07T02:14:47;3.10;;;2.80;;
11763;SDS011;5939;56.522;14.950;2022-12-07T02:30:57;3.83;;;3.00;;
11763;SDS011;5939;56.522;14.950;2022-12-07T02:33:31;3.20;;;2.90;;
11763;SDS011;5939;56.522;14.950;2022-12-07T02:36:03;4.30;;;3.07;;
11763;SDS011;5939;56.522;14.950;2022-12-07T02:38:35;3.57;;;2.93;;
11763;SDS011;5939;56.522;14.950;2022-12-07T02:41:08;6.77;;;3.70;;
11763;SDS011;5939;56.522;14.950;2022-12-07T02:43:47;3.27;;;2.87;;
11763;SDS011;5939;56.522;14.950;2022-12-07T02:46:23;4.17;;;3.23;;
11763;SDS011;5939;56.522;14.950;2022-12-07T02:48:54;4.00;;;3.10;;
11763;SDS011;5939;56.522;14.950;2022-12-07T02:51:21;4.53;;;3.40;;
11763;SDS011;5939;56.522;14.950;2022-12-07T02:53:47;3.57;;;3.10;;
11763;SDS011;5939;56.522;14.950;2022-12-07T03:13:44;4.00;;;3.20;;
11763;SDS011;5939;56.522;14.950;2022-12-07T03:15:49;3.90;;;3.27;;
11763;SDS011;5939;56.522;14.950;2022-12-07T03:18:21;4.57;;;3.50;;
11763;SDS011;5939;56.522;14.950;2022-12-07T03:20:50;3.73;;;3.17;;
11763;SDS011;5939;56.522;14.950;2022-12-07T03:23:18;4.03;;;3.10;;
11763;SDS011;5939;56.522;14.950;2022-12-07T03:25:47;3.70;;;3.30;;
11763;SDS011;5939;56.522;14.950;2022-12-07T03:28:17;3.67;;;3.03;;
11763;SDS011;5939;56.522;14.950;2022-12-07T03:30:51;3.50;;;2.93;;
11763;SDS011;5939;56.522;14.950;2022-12-07T03:33:50;3.37;;;2.73;;
11763;SDS011;5939;56.522;14.950;2022-12-07T03:36:23;4.50;;;3.57;;
11763;SDS011;5939;56.522;14.950;2022-12-07T03:41:48;4.73;;;3.17;;
11763;SDS011;5939;56.522;14.950;2022-12-07T03:44:14;5.30;;;3.00;;
11763;SDS011;5939;56.522;14.950;2022-12-07T03:46:47;4.73;;;3.30;;
11763;SDS011;5939;56.522;14.950;2022-12-07T03:52:58;4.30;;;2.97;;
11763;SDS011;5939;56.522;14.950;2022-12-07T03:55:34;3.60;;;3.13;;
11763;SDS011;5939;56.522;14.950;2022-12-07T03:58:04;3.70;;;2.90;;
11763;SDS011;5939;56.522;14.950;2022-12-07T04:00:32;4.53;;;3.10;;
11763;SDS011;5939;56.522;14.950;2022-12-07T04:02:58;4.67;;;3.33;;
11763;SDS011;5939;56.522;14.950;2022-12-07T04:05:24;4.83;;;3.50;;
11763;SDS011;5939;56.522;14.950;2022-12-07T04:07:50;4.70;;;3.27;;
11763;SDS011;5939;56.522;14.950;2022-12-07T04:10:15;3.63;;;2.73;;
11763;SDS011;5939;56.522;14.950;2022-12-07T04:12:42;3.50;;;2.83;;
11763;SDS011;5939;56.522;14.950;2022-12-07T04:15:07;4.33;;;3.10;;
11763;SDS011;5939;56.522;14.950;2022-12-07T04:17:34;3.73;;;3.00;;
11763;SDS011;5939;56.522;14.950;2022-12-07T04:19:59;4.70;;;3.40;;
11763;SDS011;5939;56.522;14.950;2022-12-07T04:22:25;4.20;;;3.13;;
11763;SDS011;5939;56.522;14.950;2022-12-07T04:24:50;4.27;;;3.13;;
11763;SDS011;5939;56.522;14.950;2022-12-07T04:27:16;3.87;;;3.20;;
11763;SDS011;5939;56.522;14.950;2022-12-07T04:29:42;3.83;;;2.73;;
11763;SDS011;5939;56.522;14.950;2022-12-07T04:32:07;5.03;;;3.37;;
11763;SDS011;5939;56.522;14.950;2022-12-07T04:34:33;5.17;;;3.23;;
11763;SDS011;5939;56.522;14.950;2022-12-07T04:36:58;3.40;;;2.80;;
11763;SDS011;5939;56.522;14.950;2022-12-07T04:39:25;3.60;;;3.10;;
11763;SDS011;5939;56.522;14.950;2022-12-07T04:41:53;3.43;;;2.70;;
11763;SDS011;5939;56.522;14.950;2022-12-07T04:44:19;3.97;;;2.80;;
11763;SDS011;5939;56.522;14.950;2022-12-07T04:46:46;4.50;;;2.97;;
11763;SDS011;5939;56.522;14.950;2022-12-07T04:49:12;4.23;;;3.00;;
11763;SDS011;5939;56.522;14.950;2022-12-07T04:51:38;3.50;;;3.00;;
11763;SDS011;5939;56.522;14.950;2022-12-07T04:54:04;3.40;;;2.63;;
11763;SDS011;5939;56.522;14.950;2022-12-07T04:56:31;3.20;;;2.60;;
11763;SDS011;5939;56.522;14.950;2022-12-07T04:58:57;2.90;;;2.50;;
11763;SDS011;5939;56.522;14.950;2022-12-07T05:01:22;4.20;;;2.80;;
11763;SDS011;5939;56.522;14.950;2022-12-07T05:03:48;3.53;;;2.80;;
11763;SDS011;5939;56.522;14.950;2022-12-07T05:06:15;4.10;;;2.90;;
11763;SDS011;5939;56.522;14.950;2022-12-07T05:08:41;3.27;;;2.90;;
11763;SDS011;5939;56.522;14.950;2022-12-07T05:11:07;3.60;;;3.13;;
11763;SDS011;5939;56.522;14.950;2022-12-07T05:13:34;4.83;;;3.20;;
11763;SDS011;5939;56.522;14.950;2022-12-07T05:16:01;4.53;;;2.90;;
11763;SDS011;5939;56.522;14.950;2022-12-07T05:18:26;3.53;;;2.60;;
11763;SDS011;5939;56.522;14.950;2022-12-07T05:20:52;3.93;;;3.00;;
11763;SDS011;5939;56.522;14.950;2022-12-07T05:23:18;5.07;;;3.03;;
11763;SDS011;5939;56.522;14.950;2022-12-07T05:25:44;4.00;;;3.30;;
11763;SDS011;5939;56.522;14.950;2022-12-07T05:28:10;5.27;;;3.03;;
11763;SDS011;5939;56.522;14.950;2022-12-07T05:30:35;5.37;;;2.80;;
11763;SDS011;5939;56.522;14.950;2022-12-07T05:33:01;4.73;;;2.70;;
11763;SDS011;5939;56.522;14.950;2022-12-07T05:35:28;4.97;;;3.10;;
11763;SDS011;5939;56.522;14.950;2022-12-07T05:37:53;4.13;;;2.80;;
11763;SDS011;5939;56.522;14.950;2022-12-07T05:40:20;3.00;;;2.47;;
11763;SDS011;5939;56.522;14.950;2022-12-07T05:42:45;6.13;;;3.00;;
11763;SDS011;5939;56.522;14.950;2022-12-07T05:45:11;4.80;;;2.80;;
11763;SDS011;5939;56.522;14.950;2022-12-07T05:47:36;3.87;;;2.80;;
11763;SDS011;5939;56.522;14.950;2022-12-07T05:50:03;4.07;;;3.03;;
11763;SDS011;5939;56.522;14.950;2022-12-07T05:52:30;4.10;;;2.87;;
11763;SDS011;5939;56.522;14.950;2022-12-07T05:54:55;4.03;;;2.13;;
11763;SDS011;5939;56.522;14.950;2022-12-07T05:57:21;3.20;;;2.77;;
11763;SDS011;5939;56.522;14.950;2022-12-07T05:59:47;3.90;;;3.03;;
11763;SDS011;5939;56.522;14.950;2022-12-07T06:02:13;3.33;;;2.30;;
11763;SDS011;5939;56.522;14.950;2022-12-07T06:04:44;3.93;;;3.00;;
11763;SDS011;5939;56.522;14.950;2022-12-07T06:07:12;4.27;;;2.73;;
11763;SDS011;5939;56.522;14.950;2022-12-07T06:09:40;3.40;;;3.07;;
11763;SDS011;5939;56.522;14.950;2022-12-07T06:12:06;3.63;;;2.40;;
11763;SDS011;5939;56.522;14.950;2022-12-07T06:14:52;4.33;;;2.77;;
11763;SDS011;5939;56.522;14.950;2022-12-07T06:17:18;5.10;;;2.97;;
11763;SDS011;5939;56.522;14.950;2022-12-07T06:19:44;4.20;;;3.07;;
11763;SDS011;5939;56.522;14.950;2022-12-07T06:22:09;4.90;;;2.90;;
11763;SDS011;5939;56.522;14.950;2022-12-07T06:24:36;3.67;;;2.73;;
11763;SDS011;5939;56.522;14.950;2022-12-07T06:27:03;3.10;;;2.40;;
11763;SDS011;5939;56.522;14.950;2022-12-07T06:29:29;5.10;;;2.57;;
11763;SDS011;5939;56.522;14.950;2022-12-07T06:31:54;3.57;;;2.63;;
11763;SDS011;5939;56.522;14.950;2022-12-07T06:34:21;3.07;;;2.40;;
11763;SDS011;5939;56.522;14.950;2022-12-07T06:36:47;3.23;;;2.30;;
11763;SDS011;5939;56.522;14.950;2022-12-07T06:39:17;3.83;;;2.47;;
11763;SDS011;5939;56.522;14.950;2022-12-07T06:41:43;2.97;;;2.30;;
11763;SDS011;5939;56.522;14.950;2022-12-07T06:44:09;3.20;;;2.47;;
11763;SDS011;5939;56.522;14.950;2022-12-07T06:46:35;3.90;;;2.63;;
11763;SDS011;5939;56.522;14.950;2022-12-07T06:49:00;4.07;;;2.53;;
11763;SDS011;5939;56.522;14.950;2022-12-07T06:51:26;3.23;;;2.47;;
11763;SDS011;5939;56.522;14.950;2022-12-07T06:53:52;3.27;;;2.40;;
11763;SDS011;5939;56.522;14.950;2022-12-07T06:56:17;2.70;;;2.23;;
11763;SDS011;5939;56.522;14.950;2022-12-07T06:58:44;2.60;;;2.27;;
11763;SDS011;5939;56.522;14.950;2022-12-07T07:01:10;3.73;;;2.40;;
11763;SDS011;5939;56.522;14.950;2022-12-07T07:03:37;4.23;;;2.77;;
11763;SDS011;5939;56.522;14.950;2022-12-07T07:06:03;3.93;;;2.37;;
11763;SDS011;5939;56.522;14.950;2022-12-07T07:08:30;3.30;;;2.40;;
11763;SDS011;5939;56.522;14.950;2022-12-07T07:10:55;2.97;;;2.23;;
11763;SDS011;5939;56.522;14.950;2022-12-07T07:13:21;3.67;;;2.37;;
11763;SDS011;5939;56.522;14.950;2022-12-07T07:15:47;3.40;;;2.70;;
11763;SDS011;5939;56.522;14.950;2022-12-07T07:18:12;3.80;;;2.47;;
11763;SDS011;5939;56.522;14.950;2022-12-07T07:20:38;3.50;;;2.40;;
11763;SDS011;5939;56.522;14.950;2022-12-07T07:23:04;3.33;;;2.37;;
11763;SDS011;5939;56.522;14.950;2022-12-07T07:25:31;2.80;;;2.03;;
11763;SDS011;5939;56.522;14.950;2022-12-07T07:27:57;2.73;;;1.80;;
11763;SDS011;5939;56.522;14.950;2022-12-07T07:30:22;2.13;;;1.83;;
11763;SDS011;5939;56.522;14.950;2022-12-07T07:32:48;3.10;;;2.40;;
11763;SDS011;5939;56.522;14.950;2022-12-07T07:35:14;2.73;;;2.20;;
11763;SDS011;5939;56.522;14.950;2022-12-07T07:37:40;3.77;;;2.00;;
11763;SDS011;5939;56.522;14.950;2022-12-07T07:40:06;2.77;;;2.10;;
11763;SDS011;5939;56.522;14.950;2022-12-07T07:42:33;3.60;;;2.00;;
11763;SDS011;5939;56.522;14.950;2022-12-07T07:44:59;4.13;;;2.37;;
11763;SDS011;5939;56.522;14.950;2022-12-07T07:47:24;2.50;;;2.20;;
11763;SDS011;5939;56.522;14.950;2022-12-07T07:49:50;3.17;;;2.00;;
11763;SDS011;5939;56.522;14.950;2022-12-07T07:52:15;2.57;;;2.13;;
11763;SDS011;5939;56.522;14.950;2022-12-07T07:54:41;4.30;;;2.40;;
11763;SDS011;5939;56.522;14.950;2022-12-07T07:57:07;5.57;;;2.50;;
11763;SDS011;5939;56.522;14.950;2022-12-07T07:59:32;4.00;;;3.20;;
11763;SDS011;5939;56.522;14.950;2022-12-07T08:01:58;8.50;;;3.67;;
11763;SDS011;5939;56.522;14.950;2022-12-07T08:04:24;5.07;;;3.00;;
11763;SDS011;5939;56.522;14.950;2022-12-07T08:06:49;6.50;;;3.10;;
11763;SDS011;5939;56.522;14.950;2022-12-07T08:09:15;4.97;;;2.90;;
11763;SDS011;5939;56.522;14.950;2022-12-07T08:11:40;4.13;;;2.80;;
11763;SDS011;5939;56.522;14.950;2022-12-07T08:14:06;4.10;;;2.67;;
11763;SDS011;5939;56.522;14.950;2022-12-07T08:16:32;3.10;;;2.63;;
11763;SDS011;5939;56.522;14.950;2022-12-07T08:18:57;6.77;;;2.73;;
11763;SDS011;5939;56.522;14.950;2022-12-07T08:21:23;6.03;;;3.80;;
11763;SDS011;5939;56.522;14.950;2022-12-07T08:23:49;4.87;;;3.20;;
11763;SDS011;5939;56.522;14.950;2022-12-07T08:26:15;4.77;;;2.63;;
11763;SDS011;5939;56.522;14.950;2022-12-07T08:28:41;4.57;;;3.17;;
11763;SDS011;5939;56.522;14.950;2022-12-07T08:31:12;4.20;;;2.90;;
11763;SDS011;5939;56.522;14.950;2022-12-07T08:33:39;3.50;;;2.70;;
11763;SDS011;5939;56.522;14.950;2022-12-07T08:36:06;4.40;;;2.90;;
11763;SDS011;5939;56.522;14.950;2022-12-07T08:38:34;4.37;;;2.70;;
11763;SDS011;5939;56.522;14.950;2022-12-07T08:41:01;3.50;;;2.40;;
11763;SDS011;5939;56.522;14.950;2022-12-07T08:43:27;3.40;;;2.67;;
11763;SDS011;5939;56.522;14.950;2022-12-07T08:45:56;3.40;;;2.40;;
11763;SDS011;5939;56.522;14.950;2022-12-07T08:48:34;3.40;;;2.10;;
11763;SDS011;5939;56.522;14.950;2022-12-07T08:51:04;4.37;;;2.10;;
11763;SDS011;5939;56.522;14.950;2022-12-07T08:53:30;2.53;;;1.83;;
11763;SDS011;5939;56.522;14.950;2022-12-07T08:55:56;2.57;;;2.33;;
11763;SDS011;5939;56.522;14.950;2022-12-07T08:58:23;3.97;;;2.57;;
11763;SDS011;5939;56.522;14.950;2022-12-07T09:00:48;3.20;;;1.80;;
11763;SDS011;5939;56.522;14.950;2022-12-07T09:03:14;2.30;;;1.90;;
11763;SDS011;5939;56.522;14.950;2022-12-07T09:05:40;2.53;;;1.80;;
11763;SDS011;5939;56.522;14.950;2022-12-07T09:08:05;3.27;;;2.00;;
11763;SDS011;5939;56.522;14.950;2022-12-07T09:10:32;3.17;;;1.97;;
11763;SDS011;5939;56.522;14.950;2022-12-07T09:12:57;2.60;;;1.90;;
11763;SDS011;5939;56.522;14.950;2022-12-07T09:15:27;3.37;;;2.00;;
11763;SDS011;5939;56.522;14.950;2022-12-07T09:17:53;2.10;;;1.80;;
11763;SDS011;5939;56.522;14.950;2022-12-07T09:20:19;2.50;;;1.67;;
11763;SDS011;5939;56.522;14.950;2022-12-07T09:22:44;2.23;;;1.93;;
11763;SDS011;5939;56.522;14.950;2022-12-07T09:25:10;2.20;;;1.77;;
11763;SDS011;5939;56.522;14.950;2022-12-07T09:27:36;2.77;;;1.73;;
11763;SDS011;5939;56.522;14.950;2022-12-07T09:30:02;1.70;;;1.60;;
11763;SDS011;5939;56.522;14.950;2022-12-07T09:32:28;2.90;;;1.77;;
11763;SDS011;5939;56.522;14.950;2022-12-07T09:34:54;2.67;;;1.93;;
11763;SDS011;5939;56.522;14.950;2022-12-07T09:37:20;3.00;;;1.70;;
11763;SDS011;5939;56.522;14.950;2022-12-07T09:39:46;1.63;;;1.53;;
11763;SDS011;5939;56.522;14.950;2022-12-07T09:42:17;2.60;;;1.80;;
11763;SDS011;5939;56.522;14.950;2022-12-07T09:44:48;3.00;;;1.50;;
11763;SDS011;5939;56.522;14.950;2022-12-07T09:47:14;1.90;;;1.70;;
11763;SDS011;5939;56.522;14.950;2022-12-07T09:49:40;2.10;;;1.43;;
11763;SDS011;5939;56.522;14.950;2022-12-07T09:54:35;2.03;;;1.50;;
11763;SDS011;5939;56.522;14.950;2022-12-07T09:57:03;3.20;;;1.30;;
11763;SDS011;5939;56.522;14.950;2022-12-07T09:59:29;2.13;;;1.33;;
11763;SDS011;5939;56.522;14.950;2022-12-07T10:01:55;3.30;;;1.87;;
11763;SDS011;5939;56.522;14.950;2022-12-07T10:04:24;2.33;;;1.60;;
11763;SDS011;5939;56.522;14.950;2022-12-07T10:06:51;1.57;;;1.40;;
11763;SDS011;5939;56.522;14.950;2022-12-07T10:09:18;2.87;;;1.50;;
11763;SDS011;5939;56.522;14.950;2022-12-07T10:12:02;1.77;;;1.23;;
11763;SDS011;5939;56.522;14.950;2022-12-07T10:14:29;1.97;;;1.27;;
11763;SDS011;5939;56.522;14.950;2022-12-07T10:16:56;2.70;;;1.50;;
11763;SDS011;5939;56.522;14.950;2022-12-07T10:22:03;1.80;;;1.30;;
11763;SDS011;5939;56.522;14.950;2022-12-07T10:24:28;2.97;;;1.50;;
11763;SDS011;5939;56.522;14.950;2022-12-07T10:26:54;1.70;;;1.40;;
11763;SDS011;5939;56.522;14.950;2022-12-07T10:32:33;1.67;;;1.50;;
11763;SDS011;5939;56.522;14.950;2022-12-07T10:34:39;4.80;;;1.80;;
11763;SDS011;5939;56.522;14.950;2022-12-07T10:42:18;3.20;;;1.87;;
11763;SDS011;5939;56.522;14.950;2022-12-07T10:44:47;2.77;;;1.47;;
11763;SDS011;5939;56.522;14.950;2022-12-07T10:47:22;2.57;;;1.40;;
11763;SDS011;5939;56.522;14.950;2022-12-07T10:52:45;2.10;;;1.37;;
11763;SDS011;5939;56.522;14.950;2022-12-07T11:04:17;2.53;;;1.20;;
11763;SDS011;5939;56.522;14.950;2022-12-07T11:07:02;2.97;;;1.57;;
11763;SDS011;5939;56.522;14.950;2022-12-07T11:12:36;2.70;;;1.23;;
11763;SDS011;5939;56.522;14.950;2022-12-07T11:18:42;1.50;;;1.20;;
11763;SDS011;5939;56.522;14.950;2022-12-07T11:21:07;2.50;;;1.10;;
11763;SDS011;5939;56.522;14.950;2022-12-07T11:24:02;2.50;;;1.33;;
11763;SDS011;5939;56.522;14.950;2022-12-07T11:29:41;1.77;;;1.10;;
11763;SDS011;5939;56.522;14.950;2022-12-07T11:35:14;1.60;;;1.10;;
11763;SDS011;5939;56.522;14.950;2022-12-07T11:37:48;2.40;;;1.30;;
11763;SDS011;5939;56.522;14.950;2022-12-07T11:46:08;3.47;;;1.57;;
11763;SDS011;5939;56.522;14.950;2022-12-07T11:48:40;1.87;;;1.20;;
11763;SDS011;5939;56.522;14.950;2022-12-07T11:51:12;1.20;;;1.10;;
11763;SDS011;5939;56.522;14.950;2022-12-07T11:56:07;1.40;;;1.07;;
11763;SDS011;5939;56.522;14.950;2022-12-07T12:06:44;1.33;;;1.07;;
11763;SDS011;5939;56.522;14.950;2022-12-07T12:09:27;2.83;;;1.30;;
11763;SDS011;5939;56.522;14.950;2022-12-07T12:20:17;1.50;;;1.00;;
11763;SDS011;5939;56.522;14.950;2022-12-07T12:25:40;1.93;;;1.07;;
11763;SDS011;5939;56.522;14.950;2022-12-07T12:28:24;1.70;;;1.37;;
11763;SDS011;5939;56.522;14.950;2022-12-07T12:31:05;2.47;;;1.30;;
11763;SDS011;5939;56.522;14.950;2022-12-07T12:33:52;1.70;;;1.30;;
11763;SDS011;5939;56.522;14.950;2022-12-07T12:36:24;1.40;;;1.20;;
11763;SDS011;5939;56.522;14.950;2022-12-07T12:47:02;2.10;;;1.40;;
11763;SDS011;5939;56.522;14.950;2022-12-07T12:49:42;1.77;;;1.27;;
11763;SDS011;5939;56.522;14.950;2022-12-07T12:57:34;2.27;;;1.37;;
11763;SDS011;5939;56.522;14.950;2022-12-07T13:00:17;4.13;;;2.07;;
11763;SDS011;5939;56.522;14.950;2022-12-07T13:02:54;3.40;;;2.00;;
11763;SDS011;5939;56.522;14.950;2022-12-07T13:05:25;2.77;;;1.53;;
11763;SDS011;5939;56.522;14.950;2022-12-07T13:07:59;3.17;;;1.60;;
11763;SDS011;5939;56.522;14.950;2022-12-07T13:13:02;1.80;;;1.30;;
11763;SDS011;5939;56.522;14.950;2022-12-07T13:26:22;1.40;;;1.13;;
11763;SDS011;5939;56.522;14.950;2022-12-07T13:29:16;2.07;;;1.13;;
11763;SDS011;5939;56.522;14.950;2022-12-07T13:31:43;3.13;;;1.40;;
11763;SDS011;5939;56.522;14.950;2022-12-07T13:36:59;2.00;;;1.37;;
11763;SDS011;5939;56.522;14.950;2022-12-07T13:39:35;2.03;;;1.00;;
11763;SDS011;5939;56.522;14.950;2022-12-07T13:42:14;3.23;;;1.30;;
11763;SDS011;5939;56.522;14.950;2022-12-07T13:44:49;2.23;;;1.30;;
11763;SDS011;5939;56.522;14.950;2022-12-07T13:47:16;1.63;;;1.27;;
11763;SDS011;5939;56.522;14.950;2022-12-07T13:49:54;2.43;;;1.33;;
11763;SDS011;5939;56.522;14.950;2022-12-07T13:54:47;2.20;;;1.10;;
11763;SDS011;5939;56.522;14.950;2022-12-07T13:57:34;1.43;;;1.10;;
11763;SDS011;5939;56.522;14.950;2022-12-07T14:00:05;2.07;;;1.10;;
11763;SDS011;5939;56.522;14.950;2022-12-07T14:02:53;2.97;;;1.10;;
11763;SDS011;5939;56.522;14.950;2022-12-07T14:05:30;1.60;;;1.00;;
11763;SDS011;5939;56.522;14.950;2022-12-07T14:07:59;1.23;;;0.93;;
11763;SDS011;5939;56.522;14.950;2022-12-07T14:10:28;1.73;;;1.23;;
11763;SDS011;5939;56.522;14.950;2022-12-07T14:13:02;1.53;;;0.90;;
11763;SDS011;5939;56.522;14.950;2022-12-07T14:15:45;2.40;;;1.10;;
11763;SDS011;5939;56.522;14.950;2022-12-07T14:18:25;2.43;;;1.00;;
11763;SDS011;5939;56.522;14.950;2022-12-07T14:21:17;1.70;;;1.03;;
11763;SDS011;5939;56.522;14.950;2022-12-07T14:24:01;2.53;;;1.10;;
11763;SDS011;5939;56.522;14.950;2022-12-07T14:26:36;3.10;;;1.20;;
11763;SDS011;5939;56.522;14.950;2022-12-07T14:31:52;1.77;;;0.90;;
11763;SDS011;5939;56.522;14.950;2022-12-07T14:34:21;1.00;;;0.90;;
11763;SDS011;5939;56.522;14.950;2022-12-07T14:36:48;1.70;;;1.00;;
11763;SDS011;5939;56.522;14.950;2022-12-07T14:39:13;3.07;;;1.43;;
11763;SDS011;5939;56.522;14.950;2022-12-07T14:41:39;2.53;;;1.20;;
11763;SDS011;5939;56.522;14.950;2022-12-07T14:44:21;1.83;;;0.90;;
11763;SDS011;5939;56.522;14.950;2022-12-07T14:46:48;4.30;;;1.20;;
11763;SDS011;5939;56.522;14.950;2022-12-07T14:49:14;1.50;;;1.00;;
11763;SDS011;5939;56.522;14.950;2022-12-07T14:51:40;2.50;;;1.20;;
11763;SDS011;5939;56.522;14.950;2022-12-07T14:54:11;0.90;;;0.90;;
11763;SDS011;5939;56.522;14.950;2022-12-07T14:56:41;1.50;;;0.90;;
11763;SDS011;5939;56.522;14.950;2022-12-07T14:59:08;1.17;;;0.93;;
11763;SDS011;5939;56.522;14.950;2022-12-07T15:01:35;2.57;;;0.90;;
11763;SDS011;5939;56.522;14.950;2022-12-07T15:04:01;1.87;;;1.20;;
11763;SDS011;5939;56.522;14.950;2022-12-07T15:06:26;1.27;;;1.00;;
11763;SDS011;5939;56.522;14.950;2022-12-07T15:08:52;1.07;;;0.90;;
11763;SDS011;5939;56.522;14.950;2022-12-07T15:11:18;1.33;;;1.10;;
11763;SDS011;5939;56.522;14.950;2022-12-07T15:13:43;1.73;;;1.00;;
11763;SDS011;5939;56.522;14.950;2022-12-07T15:16:28;1.00;;;0.87;;
11763;SDS011;5939;56.522;14.950;2022-12-07T15:18:53;2.20;;;0.90;;
11763;SDS011;5939;56.522;14.950;2022-12-07T15:21:19;0.83;;;0.83;;
11763;SDS011;5939;56.522;14.950;2022-12-07T15:23:45;1.10;;;0.93;;
11763;SDS011;5939;56.522;14.950;2022-12-07T15:26:12;1.07;;;0.93;;
11763;SDS011;5939;56.522;14.950;2022-12-07T15:28:38;1.60;;;1.10;;
11763;SDS011;5939;56.522;14.950;2022-12-07T15:31:10;1.57;;;1.20;;
11763;SDS011;5939;56.522;14.950;2022-12-07T15:33:39;2.23;;;1.00;;
11763;SDS011;5939;56.522;14.950;2022-12-07T15:36:04;1.67;;;1.10;;
11763;SDS011;5939;56.522;14.950;2022-12-07T15:38:31;1.77;;;1.20;;
11763;SDS011;5939;56.522;14.950;2022-12-07T15:40:56;1.33;;;1.10;;
11763;SDS011;5939;56.522;14.950;2022-12-07T15:43:22;1.90;;;0.90;;
11763;SDS011;5939;56.522;14.950;2022-12-07T15:46:06;2.80;;;1.20;;
11763;SDS011;5939;56.522;14.950;2022-12-07T15:48:32;2.47;;;1.17;;
11763;SDS011;5939;56.522;14.950;2022-12-07T15:51:05;1.50;;;0.90;;
11763;SDS011;5939;56.522;14.950;2022-12-07T15:53:32;1.77;;;0.90;;
11763;SDS011;5939;56.522;14.950;2022-12-07T15:55:58;1.20;;;1.00;;
11763;SDS011;5939;56.522;14.950;2022-12-07T15:58:24;2.10;;;1.13;;
11763;SDS011;5939;56.522;14.950;2022-12-07T16:00:49;1.63;;;0.83;;
11763;SDS011;5939;56.522;14.950;2022-12-07T16:03:15;1.77;;;0.80;;
11763;SDS011;5939;56.522;14.950;2022-12-07T16:05:41;2.43;;;1.00;;
11763;SDS011;5939;56.522;14.950;2022-12-07T16:08:06;1.10;;;0.93;;
11763;SDS011;5939;56.522;14.950;2022-12-07T16:10:32;1.03;;;0.97;;
11763;SDS011;5939;56.522;14.950;2022-12-07T16:12:58;1.40;;;0.97;;
11763;SDS011;5939;56.522;14.950;2022-12-07T16:15:24;2.60;;;1.10;;
11763;SDS011;5939;56.522;14.950;2022-12-07T16:17:51;1.87;;;1.30;;
11763;SDS011;5939;56.522;14.950;2022-12-07T16:20:16;3.13;;;1.00;;
11763;SDS011;5939;56.522;14.950;2022-12-07T16:22:42;2.87;;;1.03;;
11763;SDS011;5939;56.522;14.950;2022-12-07T16:25:08;1.80;;;1.00;;
11763;SDS011;5939;56.522;14.950;2022-12-07T16:27:34;2.97;;;1.10;;
11763;SDS011;5939;56.522;14.950;2022-12-07T16:30:00;0.97;;;0.93;;
11763;SDS011;5939;56.522;14.950;2022-12-07T16:32:25;1.97;;;1.17;;
11763;SDS011;5939;56.522;14.950;2022-12-07T16:34:51;3.17;;;1.20;;
11763;SDS011;5939;56.522;14.950;2022-12-07T16:37:17;0.80;;;0.80;;
11763;SDS011;5939;56.522;14.950;2022-12-07T16:39:42;1.87;;;1.10;;
11763;SDS011;5939;56.522;14.950;2022-12-07T16:42:08;1.10;;;0.83;;
11763;SDS011;5939;56.522;14.950;2022-12-07T16:44:33;3.70;;;1.03;;
11763;SDS011;5939;56.522;14.950;2022-12-07T16:46:59;1.17;;;0.83;;
11763;SDS011;5939;56.522;14.950;2022-12-07T16:49:25;1.87;;;1.00;;
11763;SDS011;5939;56.522;14.950;2022-12-07T16:51:51;2.63;;;1.00;;
11763;SDS011;5939;56.522;14.950;2022-12-07T16:54:17;1.53;;;1.00;;
11763;SDS011;5939;56.522;14.950;2022-12-07T16:56:43;1.93;;;1.00;;
11763;SDS011;5939;56.522;14.950;2022-12-07T16:59:08;2.33;;;0.90;;
11763;SDS011;5939;56.522;14.950;2022-12-07T17:01:34;2.07;;;1.00;;
11763;SDS011;5939;56.522;14.950;2022-12-07T17:04:01;2.40;;;1.23;;
11763;SDS011;5939;56.522;14.950;2022-12-07T17:06:27;1.23;;;0.70;;
11763;SDS011;5939;56.522;14.950;2022-12-07T17:08:54;1.20;;;1.10;;
11763;SDS011;5939;56.522;14.950;2022-12-07T17:11:22;1.13;;;0.90;;
11763;SDS011;5939;56.522;14.950;2022-12-07T17:13:53;3.30;;;1.17;;
11763;SDS011;5939;56.522;14.950;2022-12-07T17:16:37;1.67;;;1.03;;
11763;SDS011;5939;56.522;14.950;2022-12-07T17:19:04;2.47;;;1.23;;
11763;SDS011;5939;56.522;14.950;2022-12-07T17:21:34;1.47;;;1.00;;
11763;SDS011;5939;56.522;14.950;2022-12-07T17:24:00;1.37;;;1.00;;